sensor_id;sensor_type;location;lat;lon;timestamp;pressure;altitude;pressure_sealevel;temperature;humidity
1832;BME280;1680;48.106;11.708;2023-01-31T00:01:19;96159.13;;;3.32;93.11
1832;BME280;1680;48.106;11.708;2023-01-31T00:03:52;96182.97;;;3.52;92.39
1832;BME280;1680;48.106;11.708;2023-01-31T00:06:21;96175.69;;;3.39;93.61
1832;BME280;1680;48.106;11.708;2023-01-31T00:08:50;96173.22;;;3.38;93.32
1832;BME280;1680;48.106;11.708;2023-01-31T00:11:18;96166.44;;;3.37;93.95
1832;BME280;1680;48.106;11.708;2023-01-31T00:13:46;96181.34;;;3.35;94.07
1832;BME280;1680;48.106;11.708;2023-01-31T00:16:15;96163.19;;;3.43;94.15
1832;BME280;1680;48.106;11.708;2023-01-31T00:18:43;96175.81;;;3.38;94.27
1832;BME280;1680;48.106;11.708;2023-01-31T00:21:13;96163.84;;;3.29;94.69
1832;BME280;1680;48.106;11.708;2023-01-31T00:23:42;96169.03;;;3.45;93.65
1832;BME280;1680;48.106;11.708;2023-01-31T00:26:12;96172.75;;;3.34;94.05
1832;BME280;1680;48.106;11.708;2023-01-31T00:28:40;96173.41;;;3.28;94.49
1832;BME280;1680;48.106;11.708;2023-01-31T00:31:09;96174.06;;;3.38;94.15
1832;BME280;1680;48.106;11.708;2023-01-31T00:33:37;96176.47;;;3.40;94.78
1832;BME280;1680;48.106;11.708;2023-01-31T00:36:06;96177.13;;;3.42;94.44
1832;BME280;1680;48.106;11.708;2023-01-31T00:38:36;96170.97;;;3.43;93.58
1832;BME280;1680;48.106;11.708;2023-01-31T00:41:04;96155.75;;;3.24;94.11
1832;BME280;1680;48.106;11.708;2023-01-31T00:43:31;96170.19;;;3.26;94.80
1832;BME280;1680;48.106;11.708;2023-01-31T00:45:59;96181.66;;;3.32;94.48
1832;BME280;1680;48.106;11.708;2023-01-31T00:48:27;96179.56;;;3.35;94.43
1832;BME280;1680;48.106;11.708;2023-01-31T00:50:54;96176.31;;;3.33;94.84
1832;BME280;1680;48.106;11.708;2023-01-31T00:53:22;96162.53;;;3.41;93.58
1832;BME280;1680;48.106;11.708;2023-01-31T00:55:53;96162.53;;;3.41;93.82
1832;BME280;1680;48.106;11.708;2023-01-31T00:58:21;96143.13;;;3.21;94.67
1832;BME280;1680;48.106;11.708;2023-01-31T01:00:48;96162.53;;;3.41;93.85
1832;BME280;1680;48.106;11.708;2023-01-31T01:03:15;96172.44;;;3.29;94.66
1832;BME280;1680;48.106;11.708;2023-01-31T01:05:43;96172.44;;;3.21;95.72
1832;BME280;1680;48.106;11.708;2023-01-31T01:08:10;96166.09;;;3.24;96.03
1832;BME280;1680;48.106;11.708;2023-01-31T01:10:38;96166.44;;;3.21;96.32
1832;BME280;1680;48.106;11.708;2023-01-31T01:13:06;96164.16;;;3.42;94.30
1832;BME280;1680;48.106;11.708;2023-01-31T01:15:36;96175.34;;;3.26;95.22
1832;BME280;1680;48.106;11.708;2023-01-31T01:18:04;96178.75;;;3.35;95.38
1832;BME280;1680;48.106;11.708;2023-01-31T01:20:34;96183.94;;;3.27;95.50
1832;BME280;1680;48.106;11.708;2023-01-31T01:23:02;96175.34;;;3.42;94.84
1832;BME280;1680;48.106;11.708;2023-01-31T01:25:29;96174.84;;;3.39;95.01
1832;BME280;1680;48.106;11.708;2023-01-31T01:27:57;96173.88;;;3.24;95.09
1832;BME280;1680;48.106;11.708;2023-01-31T01:30:26;96188.16;;;3.28;95.41
1832;BME280;1680;48.106;11.708;2023-01-31T01:32:53;96184.09;;;3.17;96.47
1832;BME280;1680;48.106;11.708;2023-01-31T01:35:21;96179.72;;;3.26;96.01
1832;BME280;1680;48.106;11.708;2023-01-31T01:37:49;96179.41;;;3.21;96.74
1832;BME280;1680;48.106;11.708;2023-01-31T01:40:16;96172.28;;;3.15;97.90
1832;BME280;1680;48.106;11.708;2023-01-31T01:42:44;96188.16;;;3.28;96.32
1832;BME280;1680;48.106;11.708;2023-01-31T01:45:13;96184.41;;;3.22;96.55
1832;BME280;1680;48.106;11.708;2023-01-31T01:47:46;96191.69;;;3.27;95.90
1832;BME280;1680;48.106;11.708;2023-01-31T01:50:16;96185.56;;;3.28;96.01
1832;BME280;1680;48.106;11.708;2023-01-31T01:52:48;96181.66;;;3.16;95.72
1832;BME280;1680;48.106;11.708;2023-01-31T01:55:21;96183.28;;;3.25;95.86
1832;BME280;1680;48.106;11.708;2023-01-31T01:57:52;96189.94;;;3.11;96.04
1832;BME280;1680;48.106;11.708;2023-01-31T02:00:22;96182.00;;;3.05;96.98
1832;BME280;1680;48.106;11.708;2023-01-31T02:02:54;96193.66;;;3.17;95.53
1832;BME280;1680;48.106;11.708;2023-01-31T02:05:26;96193.00;;;3.15;95.14
1832;BME280;1680;48.106;11.708;2023-01-31T02:07:55;96189.44;;;3.16;95.89
1832;BME280;1680;48.106;11.708;2023-01-31T02:10:27;96189.44;;;3.24;94.42
1832;BME280;1680;48.106;11.708;2023-01-31T02:12:57;96189.75;;;3.29;94.54
1832;BME280;1680;48.106;11.708;2023-01-31T02:15:24;96205.63;;;3.26;94.00
1832;BME280;1680;48.106;11.708;2023-01-31T02:17:53;96207.25;;;3.11;95.13
1832;BME280;1680;48.106;11.708;2023-01-31T02:20:42;96212.28;;;3.28;94.12
1832;BME280;1680;48.106;11.708;2023-01-31T02:23:28;96213.75;;;3.31;95.05
1832;BME280;1680;48.106;11.708;2023-01-31T02:26:43;96214.53;;;3.31;94.74
1832;BME280;1680;48.106;11.708;2023-01-31T02:29:45;96212.94;;;3.22;94.12
1832;BME280;1680;48.106;11.708;2023-01-31T02:32:44;96223.09;;;3.08;95.76
1832;BME280;1680;48.106;11.708;2023-01-31T02:35:24;96207.88;;;3.13;95.06
1832;BME280;1680;48.106;11.708;2023-01-31T02:38:03;96214.88;;;3.12;95.00
1832;BME280;1680;48.106;11.708;2023-01-31T02:40:37;96211.16;;;3.07;95.67
1832;BME280;1680;48.106;11.708;2023-01-31T02:43:11;96210.78;;;3.10;95.53
1832;BME280;1680;48.106;11.708;2023-01-31T02:45:52;96204.97;;;3.08;95.40
1832;BME280;1680;48.106;11.708;2023-01-31T02:48:33;96218.91;;;3.15;95.41
1832;BME280;1680;48.106;11.708;2023-01-31T02:51:06;96211.78;;;3.17;94.78
1832;BME280;1680;48.106;11.708;2023-01-31T02:53:37;96205.44;;;3.03;95.62
1832;BME280;1680;48.106;11.708;2023-01-31T02:56:10;96214.34;;;3.09;95.86
1832;BME280;1680;48.106;11.708;2023-01-31T02:58:49;96207.72;;;3.06;94.61
1832;BME280;1680;48.106;11.708;2023-01-31T03:01:23;96207.72;;;2.98;95.05
1832;BME280;1680;48.106;11.708;2023-01-31T03:03:57;96220.34;;;2.93;95.12
1832;BME280;1680;48.106;11.708;2023-01-31T03:06:51;96223.75;;;3.02;96.18
1832;BME280;1680;48.106;11.708;2023-01-31T03:09:32;96220.97;;;2.87;96.04
1832;BME280;1680;48.106;11.708;2023-01-31T03:12:35;96221.78;;;2.96;95.68
1832;BME280;1680;48.106;11.708;2023-01-31T03:15:21;96220.03;;;2.96;96.16
1832;BME280;1680;48.106;11.708;2023-01-31T03:17:57;96218.88;;;2.91;96.62
1832;BME280;1680;48.106;11.708;2023-01-31T03:20:28;96218.88;;;2.91;96.00
1832;BME280;1680;48.106;11.708;2023-01-31T03:22:59;96168.50;;;2.78;95.34
1832;BME280;1680;48.106;11.708;2023-01-31T03:25:31;96228.25;;;2.84;96.34
1832;BME280;1680;48.106;11.708;2023-01-31T03:28:03;96231.31;;;2.87;95.51
1832;BME280;1680;48.106;11.708;2023-01-31T03:30:36;96231.19;;;2.97;94.97
1832;BME280;1680;48.106;11.708;2023-01-31T03:33:09;96239.44;;;2.92;94.41
1832;BME280;1680;48.106;11.708;2023-01-31T03:35:41;96244.75;;;2.83;95.21
1832;BME280;1680;48.106;11.708;2023-01-31T03:38:16;96248.16;;;2.84;95.42
1832;BME280;1680;48.106;11.708;2023-01-31T03:40:49;96244.13;;;2.89;94.85
1832;BME280;1680;48.106;11.708;2023-01-31T03:43:23;96241.53;;;2.97;94.35
1832;BME280;1680;48.106;11.708;2023-01-31T03:45:56;96243.16;;;2.98;94.03
1832;BME280;1680;48.106;11.708;2023-01-31T03:48:27;96250.47;;;3.02;93.22
1832;BME280;1680;48.106;11.708;2023-01-31T03:50:59;96185.75;;;2.53;94.64
1832;BME280;1680;48.106;11.708;2023-01-31T03:53:31;96265.50;;;2.99;93.49
1832;BME280;1680;48.106;11.708;2023-01-31T03:56:01;96270.63;;;2.75;95.26
1832;BME280;1680;48.106;11.708;2023-01-31T03:58:34;96274.56;;;2.87;94.72
1832;BME280;1680;48.106;11.708;2023-01-31T04:01:05;96261.59;;;2.87;94.55
1832;BME280;1680;48.106;11.708;2023-01-31T04:03:36;96268.53;;;2.79;95.20
1832;BME280;1680;48.106;11.708;2023-01-31T04:06:07;96268.34;;;2.72;96.11
1832;BME280;1680;48.106;11.708;2023-01-31T04:08:35;96262.53;;;2.78;95.16
1832;BME280;1680;48.106;11.708;2023-01-31T04:11:04;96267.06;;;2.76;95.54
1832;BME280;1680;48.106;11.708;2023-01-31T04:13:32;96266.59;;;2.81;95.42
1832;BME280;1680;48.106;11.708;2023-01-31T04:15:59;96281.50;;;2.86;94.74
1832;BME280;1680;48.106;11.708;2023-01-31T04:18:26;96279.69;;;2.79;95.44
1832;BME280;1680;48.106;11.708;2023-01-31T04:20:54;96284.25;;;2.85;95.15
1832;BME280;1680;48.106;11.708;2023-01-31T04:23:22;96283.59;;;2.83;94.52
1832;BME280;1680;48.106;11.708;2023-01-31T04:25:52;96289.19;;;2.71;94.69
1832;BME280;1680;48.106;11.708;2023-01-31T04:28:19;96285.50;;;2.73;94.49
1832;BME280;1680;48.106;11.708;2023-01-31T04:30:51;96282.25;;;2.71;95.03
1832;BME280;1680;48.106;11.708;2023-01-31T04:33:19;96286.75;;;2.61;95.41
1832;BME280;1680;48.106;11.708;2023-01-31T04:35:46;96285.78;;;2.62;95.71
1832;BME280;1680;48.106;11.708;2023-01-31T04:38:13;96295.38;;;2.70;95.34
1832;BME280;1680;48.106;11.708;2023-01-31T04:40:42;96286.34;;;2.48;95.85
1832;BME280;1680;48.106;11.708;2023-01-31T04:43:10;96293.78;;;2.43;96.21
1832;BME280;1680;48.106;11.708;2023-01-31T04:45:37;96300.91;;;2.49;96.13
1832;BME280;1680;48.106;11.708;2023-01-31T04:48:05;96302.84;;;2.47;96.33
1832;BME280;1680;48.106;11.708;2023-01-31T04:50:32;96303.00;;;2.46;96.02
1832;BME280;1680;48.106;11.708;2023-01-31T04:53:00;96305.09;;;2.42;96.15
1832;BME280;1680;48.106;11.708;2023-01-31T04:55:27;96308.03;;;2.47;96.45
1832;BME280;1680;48.106;11.708;2023-01-31T04:57:56;96320.84;;;2.57;95.11
1832;BME280;1680;48.106;11.708;2023-01-31T05:00:24;96317.94;;;2.52;95.61
1832;BME280;1680;48.106;11.708;2023-01-31T05:02:52;96319.75;;;2.59;94.36
1832;BME280;1680;48.106;11.708;2023-01-31T05:05:19;96330.22;;;2.50;94.87
1832;BME280;1680;48.106;11.708;2023-01-31T05:07:46;96325.19;;;2.48;95.28
1832;BME280;1680;48.106;11.708;2023-01-31T05:10:14;96332.16;;;2.56;94.66
1832;BME280;1680;48.106;11.708;2023-01-31T05:12:42;96337.22;;;2.57;94.71
1832;BME280;1680;48.106;11.708;2023-01-31T05:15:11;96329.44;;;2.57;94.32
1832;BME280;1680;48.106;11.708;2023-01-31T05:17:38;96323.97;;;2.60;94.65
1832;BME280;1680;48.106;11.708;2023-01-31T05:20:07;96296.06;;;2.46;93.79
1832;BME280;1680;48.106;11.708;2023-01-31T05:22:34;96343.00;;;2.51;94.95
1832;BME280;1680;48.106;11.708;2023-01-31T05:25:01;96333.00;;;2.56;94.82
1832;BME280;1680;48.106;11.708;2023-01-31T05:27:29;96342.75;;;2.62;93.82
1832;BME280;1680;48.106;11.708;2023-01-31T05:29:56;96351.13;;;2.56;94.63
1832;BME280;1680;48.106;11.708;2023-01-31T05:32:26;96356.09;;;2.50;95.79
1832;BME280;1680;48.106;11.708;2023-01-31T05:34:53;96351.72;;;2.50;95.25
1832;BME280;1680;48.106;11.708;2023-01-31T05:37:20;96352.13;;;2.63;94.27
1832;BME280;1680;48.106;11.708;2023-01-31T05:39:48;96349.69;;;2.62;94.11
1832;BME280;1680;48.106;11.708;2023-01-31T05:42:15;96352.75;;;2.57;94.22
1832;BME280;1680;48.106;11.708;2023-01-31T05:44:42;96351.41;;;2.53;94.78
1832;BME280;1680;48.106;11.708;2023-01-31T05:47:09;96366.91;;;2.45;95.72
1832;BME280;1680;48.106;11.708;2023-01-31T05:49:38;96356.97;;;2.58;94.44
1832;BME280;1680;48.106;11.708;2023-01-31T05:52:05;96361.66;;;2.55;94.53
1832;BME280;1680;48.106;11.708;2023-01-31T05:54:33;96366.09;;;2.70;93.66
1832;BME280;1680;48.106;11.708;2023-01-31T05:57:00;96333.50;;;2.34;94.46
1832;BME280;1680;48.106;11.708;2023-01-31T05:59:28;96357.28;;;2.63;94.57
1832;BME280;1680;48.106;11.708;2023-01-31T06:01:58;96365.72;;;2.65;94.16
1832;BME280;1680;48.106;11.708;2023-01-31T06:04:25;96361.47;;;2.56;94.50
1832;BME280;1680;48.106;11.708;2023-01-31T06:06:53;96364.72;;;2.58;94.40
1832;BME280;1680;48.106;11.708;2023-01-31T06:09:21;96362.28;;;2.57;94.38
1832;BME280;1680;48.106;11.708;2023-01-31T06:11:48;96363.59;;;2.61;93.50
1832;BME280;1680;48.106;11.708;2023-01-31T06:14:16;96357.53;;;2.44;94.91
1832;BME280;1680;48.106;11.708;2023-01-31T06:16:43;96358.63;;;2.42;94.91
1832;BME280;1680;48.106;11.708;2023-01-31T06:19:10;96348.47;;;2.48;96.49
1832;BME280;1680;48.106;11.708;2023-01-31T06:21:37;96355.91;;;2.43;94.92
1832;BME280;1680;48.106;11.708;2023-01-31T06:24:07;96345.94;;;2.56;96.49
1832;BME280;1680;48.106;11.708;2023-01-31T06:26:34;96349.59;;;2.71;93.53
1832;BME280;1680;48.106;11.708;2023-01-31T06:29:01;96357.19;;;2.47;94.51
1832;BME280;1680;48.106;11.708;2023-01-31T06:31:28;96347.22;;;2.52;94.41
1832;BME280;1680;48.106;11.708;2023-01-31T06:33:55;96350.94;;;2.50;93.73
1832;BME280;1680;48.106;11.708;2023-01-31T06:36:23;96351.38;;;2.45;94.30
1832;BME280;1680;48.106;11.708;2023-01-31T06:38:51;96354.56;;;2.39;95.24
1832;BME280;1680;48.106;11.708;2023-01-31T06:41:20;96354.31;;;2.50;94.47
1832;BME280;1680;48.106;11.708;2023-01-31T06:43:48;96363.31;;;2.38;94.41
1832;BME280;1680;48.106;11.708;2023-01-31T06:46:15;96368.41;;;2.56;94.30
1832;BME280;1680;48.106;11.708;2023-01-31T06:48:43;96380.16;;;2.42;93.86
1832;BME280;1680;48.106;11.708;2023-01-31T06:51:11;96373.47;;;2.57;93.38
1832;BME280;1680;48.106;11.708;2023-01-31T06:53:38;96370.50;;;2.52;93.63
1832;BME280;1680;48.106;11.708;2023-01-31T06:56:07;96366.66;;;2.56;93.03
1832;BME280;1680;48.106;11.708;2023-01-31T06:58:36;96365.41;;;2.60;92.18
1832;BME280;1680;48.106;11.708;2023-01-31T07:01:04;96370.91;;;2.65;92.11
1832;BME280;1680;48.106;11.708;2023-01-31T07:03:35;96382.59;;;2.69;91.93
1832;BME280;1680;48.106;11.708;2023-01-31T07:06:03;96390.66;;;2.66;91.15
1832;BME280;1680;48.106;11.708;2023-01-31T07:08:30;96390.34;;;2.69;91.56
1832;BME280;1680;48.106;11.708;2023-01-31T07:10:57;96390.31;;;2.61;92.06
1832;BME280;1680;48.106;11.708;2023-01-31T07:13:26;96399.34;;;2.57;92.11
1832;BME280;1680;48.106;11.708;2023-01-31T07:15:55;96370.50;;;2.52;90.98
1832;BME280;1680;48.106;11.708;2023-01-31T07:18:23;96382.84;;;2.58;90.96
1832;BME280;1680;48.106;11.708;2023-01-31T07:20:50;96384.22;;;2.45;92.32
1832;BME280;1680;48.106;11.708;2023-01-31T07:23:17;96374.88;;;2.52;91.88
1832;BME280;1680;48.106;11.708;2023-01-31T07:25:44;96389.28;;;2.54;91.58
1832;BME280;1680;48.106;11.708;2023-01-31T07:28:11;96388.44;;;2.46;91.61
1832;BME280;1680;48.106;11.708;2023-01-31T07:30:39;96388.16;;;2.57;91.22
1832;BME280;1680;48.106;11.708;2023-01-31T07:33:09;96387.38;;;2.56;91.97
1832;BME280;1680;48.106;11.708;2023-01-31T07:35:37;96361.28;;;2.50;91.53
1832;BME280;1680;48.106;11.708;2023-01-31T07:38:04;96380.06;;;2.77;91.49
1832;BME280;1680;48.106;11.708;2023-01-31T07:40:31;96394.56;;;2.70;91.27
1832;BME280;1680;48.106;11.708;2023-01-31T07:42:59;96380.28;;;2.66;90.32
1832;BME280;1680;48.106;11.708;2023-01-31T07:45:26;96385.88;;;2.79;89.71
1832;BME280;1680;48.106;11.708;2023-01-31T07:47:56;96385.22;;;2.77;90.25
1832;BME280;1680;48.106;11.708;2023-01-31T07:50:25;96386.88;;;2.86;89.93
1832;BME280;1680;48.106;11.708;2023-01-31T07:52:53;96387.63;;;3.04;88.73
1832;BME280;1680;48.106;11.708;2023-01-31T07:55:20;96385.81;;;2.96;88.71
1832;BME280;1680;48.106;11.708;2023-01-31T07:57:47;96386.97;;;3.10;88.54
1832;BME280;1680;48.106;11.708;2023-01-31T08:00:15;96389.56;;;3.10;88.34
1832;BME280;1680;48.106;11.708;2023-01-31T08:03:00;96395.41;;;3.12;87.98
1832;BME280;1680;48.106;11.708;2023-01-31T08:05:58;96386.31;;;3.00;87.64
1832;BME280;1680;48.106;11.708;2023-01-31T08:08:25;96383.06;;;2.98;87.42
1832;BME280;1680;48.106;11.708;2023-01-31T08:10:52;96395.66;;;2.93;88.41
1832;BME280;1680;48.106;11.708;2023-01-31T08:13:20;96384.69;;;2.99;88.02
1832;BME280;1680;48.106;11.708;2023-01-31T08:15:50;96393.59;;;3.04;87.08
1832;BME280;1680;48.106;11.708;2023-01-31T08:18:17;96385.91;;;2.87;87.73
1832;BME280;1680;48.106;11.708;2023-01-31T08:20:44;96390.44;;;2.85;87.94
1832;BME280;1680;48.106;11.708;2023-01-31T08:23:13;96391.78;;;2.97;86.73
1832;BME280;1680;48.106;11.708;2023-01-31T08:25:40;96392.44;;;2.99;87.76
1832;BME280;1680;48.106;11.708;2023-01-31T08:28:08;96403.09;;;2.88;87.05
1832;BME280;1680;48.106;11.708;2023-01-31T08:30:38;96399.53;;;2.89;87.32
1832;BME280;1680;48.106;11.708;2023-01-31T08:33:06;96395.81;;;2.91;86.44
1832;BME280;1680;48.106;11.708;2023-01-31T08:35:34;96398.00;;;2.79;87.02
1832;BME280;1680;48.106;11.708;2023-01-31T08:38:01;96399.34;;;2.57;87.75
1832;BME280;1680;48.106;11.708;2023-01-31T08:40:30;96414.06;;;2.82;87.65
1832;BME280;1680;48.106;11.708;2023-01-31T08:42:58;96411.16;;;2.85;87.67
1832;BME280;1680;48.106;11.708;2023-01-31T08:45:26;96380.66;;;2.71;87.47
1832;BME280;1680;48.106;11.708;2023-01-31T08:47:53;96401.41;;;2.79;87.22
1832;BME280;1680;48.106;11.708;2023-01-31T08:50:21;96397.25;;;2.86;86.51
1832;BME280;1680;48.106;11.708;2023-01-31T08:52:52;96398.78;;;3.04;86.51
1832;BME280;1680;48.106;11.708;2023-01-31T08:55:19;96387.66;;;3.12;86.31
1832;BME280;1680;48.106;11.708;2023-01-31T08:57:48;96398.41;;;3.33;84.37
1832;BME280;1680;48.106;11.708;2023-01-31T09:00:17;96400.34;;;3.31;84.83
1832;BME280;1680;48.106;11.708;2023-01-31T09:02:50;96401.66;;;3.35;84.91
1832;BME280;1680;48.106;11.708;2023-01-31T09:05:17;96396.81;;;3.40;85.34
1832;BME280;1680;48.106;11.708;2023-01-31T09:07:44;96406.75;;;3.52;83.56
1832;BME280;1680;48.106;11.708;2023-01-31T09:10:12;96383.56;;;3.59;81.79
1832;BME280;1680;48.106;11.708;2023-01-31T09:12:39;96388.16;;;3.65;82.46
1832;BME280;1680;48.106;11.708;2023-01-31T09:15:08;96380.69;;;3.62;82.01
1832;BME280;1680;48.106;11.708;2023-01-31T09:17:36;96379.88;;;3.69;82.16
1832;BME280;1680;48.106;11.708;2023-01-31T09:20:05;96378.75;;;3.72;81.96
1832;BME280;1680;48.106;11.708;2023-01-31T09:22:33;96393.50;;;3.71;82.08
1832;BME280;1680;48.106;11.708;2023-01-31T09:25:01;96383.63;;;3.90;80.42
1832;BME280;1680;48.106;11.708;2023-01-31T09:27:29;96389.31;;;3.94;79.06
1832;BME280;1680;48.106;11.708;2023-01-31T09:29:56;96390.63;;;3.98;79.46
1832;BME280;1680;48.106;11.708;2023-01-31T09:32:24;96388.50;;;4.01;79.25
1832;BME280;1680;48.106;11.708;2023-01-31T09:34:51;96405.69;;;3.94;78.77
1832;BME280;1680;48.106;11.708;2023-01-31T09:37:19;96402.44;;;4.00;78.55
1832;BME280;1680;48.106;11.708;2023-01-31T09:39:46;96415.09;;;4.03;77.85
1832;BME280;1680;48.106;11.708;2023-01-31T09:42:18;96405.53;;;3.96;78.12
1832;BME280;1680;48.106;11.708;2023-01-31T09:44:55;96400.50;;;4.02;77.98
1832;BME280;1680;48.106;11.708;2023-01-31T09:47:27;96405.03;;;3.84;78.34
1832;BME280;1680;48.106;11.708;2023-01-31T09:49:57;96407.94;;;3.89;78.38
1832;BME280;1680;48.106;11.708;2023-01-31T09:52:26;96406.00;;;3.91;77.17
1832;BME280;1680;48.106;11.708;2023-01-31T09:54:56;96412.50;;;3.80;79.41
1832;BME280;1680;48.106;11.708;2023-01-31T09:57:33;96422.88;;;3.80;78.73
1832;BME280;1680;48.106;11.708;2023-01-31T10:00:13;96435.00;;;3.71;78.80
1832;BME280;1680;48.106;11.708;2023-01-31T10:03:09;96421.25;;;3.79;78.23
1832;BME280;1680;48.106;11.708;2023-01-31T10:05:46;96426.88;;;3.66;78.59
1832;BME280;1680;48.106;11.708;2023-01-31T10:08:20;96421.06;;;3.72;78.42
1832;BME280;1680;48.106;11.708;2023-01-31T10:10:52;96392.06;;;3.77;77.42
1832;BME280;1680;48.106;11.708;2023-01-31T10:13:25;96413.78;;;3.99;76.53
1832;BME280;1680;48.106;11.708;2023-01-31T10:16:01;96397.94;;;4.10;76.45
1832;BME280;1680;48.106;11.708;2023-01-31T10:18:33;96404.41;;;4.22;76.37
1832;BME280;1680;48.106;11.708;2023-01-31T10:21:06;96410.56;;;4.29;74.38
1832;BME280;1680;48.106;11.708;2023-01-31T10:23:39;96401.13;;;4.60;73.42
1832;BME280;1680;48.106;11.708;2023-01-31T10:26:12;96360.25;;;4.54;72.66
1832;BME280;1680;48.106;11.708;2023-01-31T10:28:43;96383.94;;;4.51;71.56
1832;BME280;1680;48.106;11.708;2023-01-31T10:31:24;96369.66;;;4.55;72.18
1832;BME280;1680;48.106;11.708;2023-01-31T10:33:58;96365.28;;;4.48;71.55
1832;BME280;1680;48.106;11.708;2023-01-31T10:36:30;96312.44;;;4.01;71.71
1832;BME280;1680;48.106;11.708;2023-01-31T10:39:03;96375.19;;;4.28;72.81
1832;BME280;1680;48.106;11.708;2023-01-31T10:41:42;96362.53;;;4.33;73.98
1832;BME280;1680;48.106;11.708;2023-01-31T10:44:19;96352.31;;;4.40;73.57
1832;BME280;1680;48.106;11.708;2023-01-31T10:46:48;96356.66;;;4.63;73.38
1832;BME280;1680;48.106;11.708;2023-01-31T10:49:20;96367.38;;;4.60;73.72
1832;BME280;1680;48.106;11.708;2023-01-31T10:52:06;96364.47;;;4.55;74.89
1832;BME280;1680;48.106;11.708;2023-01-31T10:54:47;96360.41;;;4.61;73.75
1832;BME280;1680;48.106;11.708;2023-01-31T10:57:16;96355.50;;;4.74;73.17
1832;BME280;1680;48.106;11.708;2023-01-31T10:59:45;96367.69;;;4.57;73.73
1832;BME280;1680;48.106;11.708;2023-01-31T11:02:18;96356.69;;;4.47;74.81
1832;BME280;1680;48.106;11.708;2023-01-31T11:04:48;96353.13;;;4.32;74.78
1832;BME280;1680;48.106;11.708;2023-01-31T11:07:16;96342.41;;;4.35;74.31
1832;BME280;1680;48.106;11.708;2023-01-31T11:09:47;96343.72;;;4.39;74.26
1832;BME280;1680;48.106;11.708;2023-01-31T11:12:16;96336.72;;;4.48;75.10
1832;BME280;1680;48.106;11.708;2023-01-31T11:14:44;96287.13;;;4.11;75.80
1832;BME280;1680;48.106;11.708;2023-01-31T11:17:16;96337.22;;;4.35;74.11
1832;BME280;1680;48.106;11.708;2023-01-31T11:19:47;96332.03;;;4.27;75.35
1832;BME280;1680;48.106;11.708;2023-01-31T11:22:22;96321.00;;;4.41;74.93
1832;BME280;1680;48.106;11.708;2023-01-31T11:24:51;96324.88;;;4.45;75.28
1832;BME280;1680;48.106;11.708;2023-01-31T11:27:24;96325.41;;;4.33;75.79
1832;BME280;1680;48.106;11.708;2023-01-31T11:29:53;96306.53;;;4.39;76.09
1832;BME280;1680;48.106;11.708;2023-01-31T11:32:24;96309.31;;;4.29;75.60
1832;BME280;1680;48.106;11.708;2023-01-31T11:34:57;96293.09;;;4.27;76.64
1832;BME280;1680;48.106;11.708;2023-01-31T11:37:25;96285.50;;;4.10;77.65
1832;BME280;1680;48.106;11.708;2023-01-31T11:39:56;96281.13;;;4.26;76.29
1832;BME280;1680;48.106;11.708;2023-01-31T11:42:24;96280.16;;;4.19;76.46
1832;BME280;1680;48.106;11.708;2023-01-31T11:44:57;96280.16;;;4.11;77.63
1832;BME280;1680;48.106;11.708;2023-01-31T11:47:33;96257.78;;;4.02;77.04
1832;BME280;1680;48.106;11.708;2023-01-31T11:50:06;96270.38;;;4.29;76.09
1832;BME280;1680;48.106;11.708;2023-01-31T11:52:41;96271.84;;;4.32;76.45
1832;BME280;1680;48.106;11.708;2023-01-31T11:55:15;96280.13;;;4.27;75.93
1832;BME280;1680;48.106;11.708;2023-01-31T11:57:43;96263.28;;;4.23;76.65
1832;BME280;1680;48.106;11.708;2023-01-31T12:00:20;96257.72;;;4.34;76.14
1832;BME280;1680;48.106;11.708;2023-01-31T12:02:52;96259.00;;;4.38;76.00
1832;BME280;1680;48.106;11.708;2023-01-31T12:05:33;96244.22;;;4.47;76.40
1832;BME280;1680;48.106;11.708;2023-01-31T12:08:01;96238.97;;;4.63;75.75
1832;BME280;1680;48.106;11.708;2023-01-31T12:10:32;96243.97;;;4.64;75.95
1832;BME280;1680;48.106;11.708;2023-01-31T12:13:10;96206.97;;;4.62;74.04
1832;BME280;1680;48.106;11.708;2023-01-31T12:15:44;96233.53;;;4.80;75.91
1832;BME280;1680;48.106;11.708;2023-01-31T12:18:12;96222.53;;;4.70;75.74
1832;BME280;1680;48.106;11.708;2023-01-31T12:20:47;96214.91;;;4.69;75.16
1832;BME280;1680;48.106;11.708;2023-01-31T12:23:25;96198.31;;;4.78;74.95
1832;BME280;1680;48.106;11.708;2023-01-31T12:26:05;96195.41;;;4.73;74.03
1832;BME280;1680;48.106;11.708;2023-01-31T12:28:49;96179.44;;;4.45;75.37
1832;BME280;1680;48.106;11.708;2023-01-31T12:31:40;96154.41;;;4.22;75.60
1832;BME280;1680;48.106;11.708;2023-01-31T12:34:22;96231.00;;;4.64;74.37
1832;BME280;1680;48.106;11.708;2023-01-31T12:37:04;96216.53;;;4.70;74.63
1832;BME280;1680;48.106;11.708;2023-01-31T12:39:50;96214.03;;;4.84;74.94
1832;BME280;1680;48.106;11.708;2023-01-31T12:42:31;96207.13;;;4.99;74.86
1832;BME280;1680;48.106;11.708;2023-01-31T12:45:15;96211.69;;;4.89;74.92
1832;BME280;1680;48.106;11.708;2023-01-31T12:48:06;96204.78;;;5.04;73.78
1832;BME280;1680;48.106;11.708;2023-01-31T12:50:42;96198.28;;;5.08;73.15
1832;BME280;1680;48.106;11.708;2023-01-31T12:53:38;96198.44;;;4.84;73.94
1832;BME280;1680;48.106;11.708;2023-01-31T12:56:21;96205.59;;;4.82;74.42
1832;BME280;1680;48.106;11.708;2023-01-31T12:58:58;96198.78;;;4.73;75.67
1832;BME280;1680;48.106;11.708;2023-01-31T13:01:33;96193.31;;;4.68;74.50
1832;BME280;1680;48.106;11.708;2023-01-31T13:04:23;96160.34;;;4.38;76.24
1832;BME280;1680;48.106;11.708;2023-01-31T13:06:55;96186.44;;;4.75;75.09
1832;BME280;1680;48.106;11.708;2023-01-31T13:09:27;96184.88;;;4.66;75.06
1832;BME280;1680;48.106;11.708;2023-01-31T13:11:58;96194.50;;;4.58;76.12
1832;BME280;1680;48.106;11.708;2023-01-31T13:14:30;96189.88;;;4.76;76.03
1832;BME280;1680;48.106;11.708;2023-01-31T13:17:01;96186.34;;;4.91;74.18
1832;BME280;1680;48.106;11.708;2023-01-31T13:19:33;96167.16;;;5.00;74.15
1832;BME280;1680;48.106;11.708;2023-01-31T13:22:07;96155.94;;;4.99;74.22
1832;BME280;1680;48.106;11.708;2023-01-31T13:24:41;96156.56;;;5.01;73.90
1832;BME280;1680;48.106;11.708;2023-01-31T13:27:16;96157.88;;;4.97;75.23
1832;BME280;1680;48.106;11.708;2023-01-31T13:29:49;96164.88;;;4.97;74.81
1832;BME280;1680;48.106;11.708;2023-01-31T13:32:24;96157.63;;;5.15;74.11
1832;BME280;1680;48.106;11.708;2023-01-31T13:34:56;96150.28;;;5.18;73.93
1832;BME280;1680;48.106;11.708;2023-01-31T13:37:27;96137.69;;;5.30;73.68
1832;BME280;1680;48.106;11.708;2023-01-31T13:39:58;96136.84;;;5.29;73.98
1832;BME280;1680;48.106;11.708;2023-01-31T13:42:28;96123.06;;;5.43;75.34
1832;BME280;1680;48.106;11.708;2023-01-31T13:45:01;96117.78;;;5.37;73.49